This is the latest recevied weather packets stored in our database for station/object VANOK. If no packets are shown the sender has not sent any weather packets the latest 10 day(s).
| Time | Temp. | Humidity | Pressure | Rain* | Wind** | Luminosity | Snow |
|---|---|---|---|---|---|---|---|
| 1777890437 | 6.11° C | 94% | 1003.3 hPa | - | - | - | - |
| 1777889236 | 6.11° C | 89% | 1003.5 hPa | - | - | - | - |
| 1777888035 | 5.56° C | 91% | 1003.8 hPa | - | - | - | - |
| 1777886836 | 5.56° C | 91% | 1004 hPa | - | - | - | - |
| 1777885635 | 5.56° C | 90% | 1004.3 hPa | - | - | - | - |
| 1777884436 | 5.56° C | 86% | 1004.5 hPa | - | - | - | - |
| 1777883236 | 5.56° C | 91% | 1004.7 hPa | - | - | - | - |
| 1777882036 | 5.56° C | 91% | 1004.8 hPa | - | - | - | - |
| 1777880836 | 5.56° C | 83% | 1005.1 hPa | - | - | - | - |
| 1777879636 | 5° C | 83% | 1005.2 hPa | - | - | - | - |
| 1777878435 | 5.56° C | 82% | 1005.4 hPa | - | - | - | - |
| 1777877235 | 6.11° C | 72% | 1005.5 hPa | - | - | - | - |
| 1777876035 | 6.11° C | 72% | 1005.1 hPa | - | - | - | - |
| 1777874835 | 6.11° C | 74% | 1004.8 hPa | - | - | - | - |
| 1777873635 | 5.56° C | 81% | 1004.9 hPa | - | - | - | - |
| 1777872435 | 5.56° C | 81% | 1005.1 hPa | - | - | - | - |
| 1777871235 | 6.11° C | 76% | 1005.3 hPa | - | - | - | - |
| 1777870035 | 6.11° C | 75% | 1005.7 hPa | - | - | - | - |
| 1777868835 | 5.56° C | 75% | 1006 hPa | - | - | - | - |
| 1777867635 | 5° C | 79% | 1006.1 hPa | - | - | - | - |
| 1777866435 | 4.44° C | 83% | 1006.2 hPa | - | - | - | - |
| 1777865235 | 4.44° C | 85% | 1006.4 hPa | - | - | - | - |
| 1777864035 | 3.89° C | 87% | 1006.6 hPa | - | - | - | - |
| 1777862835 | 2.78° C | 92% | 1006.6 hPa | - | - | - | - |
| 1777861635 | 3.89° C | 89% | 1007 hPa | - | - | - | - |
* Rain since midnight (hover to see other rain measurements)
** Current wind speed in m/s (hover to see current wind gust speed)